sensor_id;sensor_type;location;lat;lon;timestamp;P1;durP1;ratioP1;P2;durP2;ratioP2
70981;SDS011;58640;51.320;9.456;2023-04-01T00:00:03;1.90;;;1.20;;
70981;SDS011;58640;51.320;9.456;2023-04-01T00:02:29;6.57;;;1.23;;
70981;SDS011;58640;51.320;9.456;2023-04-01T00:04:54;10.75;;;1.80;;
70981;SDS011;58640;51.320;9.456;2023-04-01T00:07:20;5.05;;;1.23;;
70981;SDS011;58640;51.320;9.456;2023-04-01T00:09:45;3.83;;;1.40;;
70981;SDS011;58640;51.320;9.456;2023-04-01T00:12:11;4.15;;;1.33;;
70981;SDS011;58640;51.320;9.456;2023-04-01T00:14:36;7.22;;;1.30;;
70981;SDS011;58640;51.320;9.456;2023-04-01T00:17:02;8.57;;;1.20;;
70981;SDS011;58640;51.320;9.456;2023-04-01T00:19:27;2.63;;;0.85;;
70981;SDS011;58640;51.320;9.456;2023-04-01T00:21:53;4.20;;;1.92;;
70981;SDS011;58640;51.320;9.456;2023-04-01T00:24:18;6.28;;;1.30;;
70981;SDS011;58640;51.320;9.456;2023-04-01T00:26:44;2.63;;;1.00;;
70981;SDS011;58640;51.320;9.456;2023-04-01T00:29:09;8.50;;;1.55;;
70981;SDS011;58640;51.320;9.456;2023-04-01T00:31:35;9.82;;;1.55;;
70981;SDS011;58640;51.320;9.456;2023-04-01T00:34:00;6.65;;;1.70;;
70981;SDS011;58640;51.320;9.456;2023-04-01T00:36:26;3.42;;;1.00;;
70981;SDS011;58640;51.320;9.456;2023-04-01T00:38:51;5.03;;;1.25;;
70981;SDS011;58640;51.320;9.456;2023-04-01T00:41:17;4.72;;;1.02;;
70981;SDS011;58640;51.320;9.456;2023-04-01T00:43:45;7.28;;;1.73;;
70981;SDS011;58640;51.320;9.456;2023-04-01T00:46:12;5.97;;;1.00;;
70981;SDS011;58640;51.320;9.456;2023-04-01T00:48:39;8.55;;;1.48;;
70981;SDS011;58640;51.320;9.456;2023-04-01T00:51:11;7.80;;;1.40;;
70981;SDS011;58640;51.320;9.456;2023-04-01T00:53:44;3.22;;;1.00;;
70981;SDS011;58640;51.320;9.456;2023-04-01T00:56:12;3.80;;;1.40;;
70981;SDS011;58640;51.320;9.456;2023-04-01T00:58:42;5.32;;;1.20;;
70981;SDS011;58640;51.320;9.456;2023-04-01T01:01:11;4.95;;;1.40;;
70981;SDS011;58640;51.320;9.456;2023-04-01T01:03:36;5.85;;;1.48;;
70981;SDS011;58640;51.320;9.456;2023-04-01T01:08:46;3.85;;;1.40;;
70981;SDS011;58640;51.320;9.456;2023-04-01T01:11:22;6.55;;;1.10;;
70981;SDS011;58640;51.320;9.456;2023-04-01T01:13:59;4.20;;;1.45;;
70981;SDS011;58640;51.320;9.456;2023-04-01T01:16:45;3.53;;;1.40;;
70981;SDS011;58640;51.320;9.456;2023-04-01T01:22:02;2.17;;;0.95;;
70981;SDS011;58640;51.320;9.456;2023-04-01T01:27:12;4.32;;;1.42;;
70981;SDS011;58640;51.320;9.456;2023-04-01T01:29:43;3.90;;;1.23;;
70981;SDS011;58640;51.320;9.456;2023-04-01T01:32:31;6.55;;;1.50;;
70981;SDS011;58640;51.320;9.456;2023-04-01T01:37:52;5.65;;;1.75;;
70981;SDS011;58640;51.320;9.456;2023-04-01T01:40:22;4.95;;;1.27;;
70981;SDS011;58640;51.320;9.456;2023-04-01T01:42:51;4.68;;;1.83;;
70981;SDS011;58640;51.320;9.456;2023-04-01T01:45:21;4.32;;;1.52;;
70981;SDS011;58640;51.320;9.456;2023-04-01T01:47:50;7.78;;;1.75;;
70981;SDS011;58640;51.320;9.456;2023-04-01T01:50:17;5.78;;;1.45;;
70981;SDS011;58640;51.320;9.456;2023-04-01T01:52:44;5.57;;;1.42;;
70981;SDS011;58640;51.320;9.456;2023-04-01T02:01:12;6.78;;;1.50;;
70981;SDS011;58640;51.320;9.456;2023-04-01T02:03:40;3.95;;;1.67;;
70981;SDS011;58640;51.320;9.456;2023-04-01T02:06:10;5.38;;;1.90;;
70981;SDS011;58640;51.320;9.456;2023-04-01T02:08:45;3.42;;;1.58;;
70981;SDS011;58640;51.320;9.456;2023-04-01T02:11:16;5.22;;;1.73;;
70981;SDS011;58640;51.320;9.456;2023-04-01T02:16:28;3.83;;;1.35;;
70981;SDS011;58640;51.320;9.456;2023-04-01T02:18:59;6.35;;;1.70;;
70981;SDS011;58640;51.320;9.456;2023-04-01T02:21:28;2.85;;;1.67;;
70981;SDS011;58640;51.320;9.456;2023-04-01T02:23:56;8.73;;;1.80;;
70981;SDS011;58640;51.320;9.456;2023-04-01T02:26:25;5.22;;;1.80;;
70981;SDS011;58640;51.320;9.456;2023-04-01T02:28:51;6.32;;;2.28;;
70981;SDS011;58640;51.320;9.456;2023-04-01T02:31:18;4.95;;;1.60;;
70981;SDS011;58640;51.320;9.456;2023-04-01T02:33:44;5.53;;;2.20;;
70981;SDS011;58640;51.320;9.456;2023-04-01T02:36:14;7.45;;;1.83;;
70981;SDS011;58640;51.320;9.456;2023-04-01T02:38:41;2.28;;;1.40;;
70981;SDS011;58640;51.320;9.456;2023-04-01T02:41:07;6.88;;;1.95;;
70981;SDS011;58640;51.320;9.456;2023-04-01T02:43:33;3.60;;;1.50;;
70981;SDS011;58640;51.320;9.456;2023-04-01T02:45:58;5.97;;;1.50;;
70981;SDS011;58640;51.320;9.456;2023-04-01T02:48:24;6.28;;;2.22;;
70981;SDS011;58640;51.320;9.456;2023-04-01T02:50:50;7.18;;;1.70;;
70981;SDS011;58640;51.320;9.456;2023-04-01T02:53:15;6.43;;;1.88;;
70981;SDS011;58640;51.320;9.456;2023-04-01T02:55:41;5.85;;;2.00;;
70981;SDS011;58640;51.320;9.456;2023-04-01T02:58:06;3.70;;;1.40;;
70981;SDS011;58640;51.320;9.456;2023-04-01T03:00:32;4.90;;;1.85;;
70981;SDS011;58640;51.320;9.456;2023-04-01T03:02:57;6.15;;;1.55;;
70981;SDS011;58640;51.320;9.456;2023-04-01T03:05:23;4.10;;;1.10;;
70981;SDS011;58640;51.320;9.456;2023-04-01T03:07:48;8.00;;;1.55;;
70981;SDS011;58640;51.320;9.456;2023-04-01T03:10:14;5.68;;;2.65;;
70981;SDS011;58640;51.320;9.456;2023-04-01T03:12:39;6.32;;;1.60;;
70981;SDS011;58640;51.320;9.456;2023-04-01T03:15:05;6.25;;;1.90;;
70981;SDS011;58640;51.320;9.456;2023-04-01T03:17:31;6.00;;;2.15;;
70981;SDS011;58640;51.320;9.456;2023-04-01T03:19:56;3.92;;;1.27;;
70981;SDS011;58640;51.320;9.456;2023-04-01T03:22:21;7.38;;;1.55;;
70981;SDS011;58640;51.320;9.456;2023-04-01T03:24:47;7.15;;;1.63;;
70981;SDS011;58640;51.320;9.456;2023-04-01T03:27:13;8.38;;;1.92;;
70981;SDS011;58640;51.320;9.456;2023-04-01T03:29:38;3.22;;;1.27;;
70981;SDS011;58640;51.320;9.456;2023-04-01T03:32:04;5.28;;;1.50;;
70981;SDS011;58640;51.320;9.456;2023-04-01T03:34:30;4.18;;;1.50;;
70981;SDS011;58640;51.320;9.456;2023-04-01T03:36:55;5.38;;;1.38;;
70981;SDS011;58640;51.320;9.456;2023-04-01T03:39:21;6.38;;;1.55;;
70981;SDS011;58640;51.320;9.456;2023-04-01T03:41:47;5.32;;;1.10;;
70981;SDS011;58640;51.320;9.456;2023-04-01T03:44:12;4.40;;;1.30;;
70981;SDS011;58640;51.320;9.456;2023-04-01T03:46:38;7.75;;;1.40;;
70981;SDS011;58640;51.320;9.456;2023-04-01T03:49:10;8.05;;;1.58;;
70981;SDS011;58640;51.320;9.456;2023-04-01T03:51:40;4.18;;;1.25;;
70981;SDS011;58640;51.320;9.456;2023-04-01T03:54:07;5.07;;;1.30;;
70981;SDS011;58640;51.320;9.456;2023-04-01T03:56:33;6.07;;;1.58;;
70981;SDS011;58640;51.320;9.456;2023-04-01T03:59:01;6.30;;;1.67;;
70981;SDS011;58640;51.320;9.456;2023-04-01T04:01:28;6.68;;;1.20;;
70981;SDS011;58640;51.320;9.456;2023-04-01T04:03:54;3.92;;;1.23;;
70981;SDS011;58640;51.320;9.456;2023-04-01T04:06:20;5.75;;;1.10;;
70981;SDS011;58640;51.320;9.456;2023-04-01T04:08:45;6.88;;;2.40;;
70981;SDS011;58640;51.320;9.456;2023-04-01T04:11:11;6.05;;;1.05;;
70981;SDS011;58640;51.320;9.456;2023-04-01T04:13:37;6.47;;;1.10;;
70981;SDS011;58640;51.320;9.456;2023-04-01T04:16:03;2.90;;;1.27;;
70981;SDS011;58640;51.320;9.456;2023-04-01T04:18:28;2.55;;;1.00;;
70981;SDS011;58640;51.320;9.456;2023-04-01T04:20:54;2.28;;;1.20;;
70981;SDS011;58640;51.320;9.456;2023-04-01T04:23:19;4.00;;;1.05;;
70981;SDS011;58640;51.320;9.456;2023-04-01T04:25:53;5.00;;;1.00;;
70981;SDS011;58640;51.320;9.456;2023-04-01T04:28:19;3.80;;;1.45;;
70981;SDS011;58640;51.320;9.456;2023-04-01T04:30:45;4.22;;;1.13;;
70981;SDS011;58640;51.320;9.456;2023-04-01T04:33:10;3.13;;;1.00;;
70981;SDS011;58640;51.320;9.456;2023-04-01T04:35:35;3.60;;;1.00;;
70981;SDS011;58640;51.320;9.456;2023-04-01T04:38:01;2.85;;;1.10;;
70981;SDS011;58640;51.320;9.456;2023-04-01T04:40:26;6.25;;;1.50;;
70981;SDS011;58640;51.320;9.456;2023-04-01T04:42:51;4.10;;;1.33;;
70981;SDS011;58640;51.320;9.456;2023-04-01T04:45:17;7.60;;;1.30;;
70981;SDS011;58640;51.320;9.456;2023-04-01T04:47:42;7.07;;;1.35;;
70981;SDS011;58640;51.320;9.456;2023-04-01T04:50:07;6.57;;;1.02;;
70981;SDS011;58640;51.320;9.456;2023-04-01T04:52:33;4.13;;;1.30;;
70981;SDS011;58640;51.320;9.456;2023-04-01T04:54:59;2.22;;;0.77;;
70981;SDS011;58640;51.320;9.456;2023-04-01T04:57:24;5.00;;;1.00;;
70981;SDS011;58640;51.320;9.456;2023-04-01T04:59:50;4.63;;;1.10;;
70981;SDS011;58640;51.320;9.456;2023-04-01T05:02:15;3.45;;;0.95;;
70981;SDS011;58640;51.320;9.456;2023-04-01T05:04:40;3.60;;;1.20;;
70981;SDS011;58640;51.320;9.456;2023-04-01T05:07:06;5.93;;;0.93;;
70981;SDS011;58640;51.320;9.456;2023-04-01T05:09:31;2.90;;;1.60;;
70981;SDS011;58640;51.320;9.456;2023-04-01T05:11:57;3.75;;;0.93;;
70981;SDS011;58640;51.320;9.456;2023-04-01T05:14:22;2.95;;;1.20;;
70981;SDS011;58640;51.320;9.456;2023-04-01T05:16:47;2.97;;;1.00;;
70981;SDS011;58640;51.320;9.456;2023-04-01T05:19:14;5.32;;;1.05;;
70981;SDS011;58640;51.320;9.456;2023-04-01T05:21:39;4.57;;;0.90;;
70981;SDS011;58640;51.320;9.456;2023-04-01T05:24:07;8.20;;;1.45;;
70981;SDS011;58640;51.320;9.456;2023-04-01T05:26:34;2.97;;;1.27;;
70981;SDS011;58640;51.320;9.456;2023-04-01T05:28:59;8.85;;;1.17;;
70981;SDS011;58640;51.320;9.456;2023-04-01T05:31:25;1.70;;;1.00;;
70981;SDS011;58640;51.320;9.456;2023-04-01T05:33:50;4.75;;;1.05;;
70981;SDS011;58640;51.320;9.456;2023-04-01T05:36:16;5.45;;;1.42;;
70981;SDS011;58640;51.320;9.456;2023-04-01T05:38:41;3.67;;;1.42;;
70981;SDS011;58640;51.320;9.456;2023-04-01T05:41:08;3.70;;;0.82;;
70981;SDS011;58640;51.320;9.456;2023-04-01T05:43:35;4.70;;;0.98;;
70981;SDS011;58640;51.320;9.456;2023-04-01T05:46:01;5.63;;;1.48;;
70981;SDS011;58640;51.320;9.456;2023-04-01T05:48:26;8.93;;;1.23;;
70981;SDS011;58640;51.320;9.456;2023-04-01T05:50:52;8.02;;;1.20;;
70981;SDS011;58640;51.320;9.456;2023-04-01T05:53:17;5.68;;;0.93;;
70981;SDS011;58640;51.320;9.456;2023-04-01T05:55:42;2.30;;;1.00;;
70981;SDS011;58640;51.320;9.456;2023-04-01T05:58:08;5.47;;;1.30;;
70981;SDS011;58640;51.320;9.456;2023-04-01T06:00:33;5.63;;;1.20;;
70981;SDS011;58640;51.320;9.456;2023-04-01T06:02:59;2.67;;;0.90;;
70981;SDS011;58640;51.320;9.456;2023-04-01T06:05:26;3.40;;;1.10;;
70981;SDS011;58640;51.320;9.456;2023-04-01T06:07:55;1.17;;;0.85;;
70981;SDS011;58640;51.320;9.456;2023-04-01T06:10:25;4.53;;;1.10;;
70981;SDS011;58640;51.320;9.456;2023-04-01T06:13:10;3.60;;;0.85;;
70981;SDS011;58640;51.320;9.456;2023-04-01T06:15:49;4.68;;;1.23;;
70981;SDS011;58640;51.320;9.456;2023-04-01T06:21:37;3.58;;;0.60;;
70981;SDS011;58640;51.320;9.456;2023-04-01T06:29:58;2.25;;;0.98;;
70981;SDS011;58640;51.320;9.456;2023-04-01T06:35:48;3.67;;;0.90;;
70981;SDS011;58640;51.320;9.456;2023-04-01T06:44:36;4.30;;;1.20;;
70981;SDS011;58640;51.320;9.456;2023-04-01T06:47:33;4.63;;;1.00;;
70981;SDS011;58640;51.320;9.456;2023-04-01T06:50:34;3.85;;;0.95;;
70981;SDS011;58640;51.320;9.456;2023-04-01T06:53:10;5.32;;;0.93;;
70981;SDS011;58640;51.320;9.456;2023-04-01T06:55:43;3.53;;;1.33;;
70981;SDS011;58640;51.320;9.456;2023-04-01T06:58:19;1.80;;;1.10;;
70981;SDS011;58640;51.320;9.456;2023-04-01T07:00:48;4.70;;;1.08;;
70981;SDS011;58640;51.320;9.456;2023-04-01T07:03:19;4.10;;;0.98;;
70981;SDS011;58640;51.320;9.456;2023-04-01T07:08:55;3.97;;;0.82;;
70981;SDS011;58640;51.320;9.456;2023-04-01T07:11:32;1.63;;;0.82;;
70981;SDS011;58640;51.320;9.456;2023-04-01T07:16:49;2.90;;;1.15;;
70981;SDS011;58640;51.320;9.456;2023-04-01T07:21:56;3.63;;;0.88;;
70981;SDS011;58640;51.320;9.456;2023-04-01T07:24:26;1.42;;;0.90;;
70981;SDS011;58640;51.320;9.456;2023-04-01T07:26:56;2.72;;;0.90;;
70981;SDS011;58640;51.320;9.456;2023-04-01T07:29:22;3.28;;;1.00;;
70981;SDS011;58640;51.320;9.456;2023-04-01T07:37:28;3.50;;;0.90;;
70981;SDS011;58640;51.320;9.456;2023-04-01T07:40:05;3.38;;;0.70;;
70981;SDS011;58640;51.320;9.456;2023-04-01T07:45:39;0.93;;;0.70;;
70981;SDS011;58640;51.320;9.456;2023-04-01T07:56:18;2.90;;;0.85;;
70981;SDS011;58640;51.320;9.456;2023-04-01T07:59:07;1.67;;;0.68;;
70981;SDS011;58640;51.320;9.456;2023-04-01T08:01:39;2.00;;;0.93;;
70981;SDS011;58640;51.320;9.456;2023-04-01T08:04:22;1.13;;;0.70;;
70981;SDS011;58640;51.320;9.456;2023-04-01T08:20:52;1.75;;;0.70;;
70981;SDS011;58640;51.320;9.456;2023-04-01T08:23:24;1.83;;;0.60;;
70981;SDS011;58640;51.320;9.456;2023-04-01T08:26:02;2.25;;;0.80;;
70981;SDS011;58640;51.320;9.456;2023-04-01T08:28:35;1.95;;;0.70;;
70981;SDS011;58640;51.320;9.456;2023-04-01T08:31:10;2.03;;;0.50;;
70981;SDS011;58640;51.320;9.456;2023-04-01T08:33:37;1.65;;;0.63;;
70981;SDS011;58640;51.320;9.456;2023-04-01T08:36:19;0.95;;;0.60;;
70981;SDS011;58640;51.320;9.456;2023-04-01T08:44:04;1.63;;;0.75;;
70981;SDS011;58640;51.320;9.456;2023-04-01T08:46:39;1.52;;;0.70;;
70981;SDS011;58640;51.320;9.456;2023-04-01T08:52:09;3.70;;;1.15;;
70981;SDS011;58640;51.320;9.456;2023-04-01T09:01:13;2.90;;;0.73;;
70981;SDS011;58640;51.320;9.456;2023-04-01T09:03:19;1.27;;;0.57;;
70981;SDS011;58640;51.320;9.456;2023-04-01T09:06:21;1.42;;;0.43;;
70981;SDS011;58640;51.320;9.456;2023-04-01T09:12:02;4.10;;;0.50;;
70981;SDS011;58640;51.320;9.456;2023-04-01T09:21:24;1.70;;;0.60;;
70981;SDS011;58640;51.320;9.456;2023-04-01T09:26:58;2.42;;;0.50;;
70981;SDS011;58640;51.320;9.456;2023-04-01T09:45:51;4.32;;;0.90;;
70981;SDS011;58640;51.320;9.456;2023-04-01T09:51:45;2.55;;;0.50;;
70981;SDS011;58640;51.320;9.456;2023-04-01T10:03:08;3.65;;;1.30;;
70981;SDS011;58640;51.320;9.456;2023-04-01T10:31:14;2.85;;;0.70;;
70981;SDS011;58640;51.320;9.456;2023-04-01T10:36:43;12.68;;;7.03;;
70981;SDS011;58640;51.320;9.456;2023-04-01T10:42:26;3.50;;;2.13;;
70981;SDS011;58640;51.320;9.456;2023-04-01T11:04:54;0.73;;;0.60;;
70981;SDS011;58640;51.320;9.456;2023-04-01T11:19:15;1.15;;;0.98;;
70981;SDS011;58640;51.320;9.456;2023-04-01T11:41:32;0.50;;;0.50;;
70981;SDS011;58640;51.320;9.456;2023-04-01T11:49:53;1.10;;;0.52;;
70981;SDS011;58640;51.320;9.456;2023-04-01T11:52:45;2.85;;;0.55;;
70981;SDS011;58640;51.320;9.456;2023-04-01T11:58:36;1.10;;;0.63;;
70981;SDS011;58640;51.320;9.456;2023-04-01T12:07:27;1.98;;;0.80;;
70981;SDS011;58640;51.320;9.456;2023-04-01T12:16:23;0.50;;;0.50;;
70981;SDS011;58640;51.320;9.456;2023-04-01T12:19:13;1.08;;;0.75;;
70981;SDS011;58640;51.320;9.456;2023-04-01T12:29:55;0.68;;;0.68;;
70981;SDS011;58640;51.320;9.456;2023-04-01T12:32:41;0.98;;;0.68;;
70981;SDS011;58640;51.320;9.456;2023-04-01T12:46:20;0.77;;;0.63;;
70981;SDS011;58640;51.320;9.456;2023-04-01T13:00:39;0.98;;;0.88;;
70981;SDS011;58640;51.320;9.456;2023-04-01T13:22:48;0.60;;;0.60;;
70981;SDS011;58640;51.320;9.456;2023-04-01T13:28:26;2.60;;;1.75;;
70981;SDS011;58640;51.320;9.456;2023-04-01T13:31:07;1.75;;;1.17;;
70981;SDS011;58640;51.320;9.456;2023-04-01T13:33:54;2.25;;;1.20;;
70981;SDS011;58640;51.320;9.456;2023-04-01T13:37:06;0.80;;;0.80;;
70981;SDS011;58640;51.320;9.456;2023-04-01T13:42:35;1.02;;;0.50;;
70981;SDS011;58640;51.320;9.456;2023-04-01T14:02:44;1.42;;;0.52;;
70981;SDS011;58640;51.320;9.456;2023-04-01T14:08:27;0.95;;;0.90;;
70981;SDS011;58640;51.320;9.456;2023-04-01T14:11:13;3.47;;;0.45;;
70981;SDS011;58640;51.320;9.456;2023-04-01T14:37:01;1.50;;;0.70;;
70981;SDS011;58640;51.320;9.456;2023-04-01T14:42:58;0.63;;;0.63;;
70981;SDS011;58640;51.320;9.456;2023-04-01T14:48:57;1.88;;;0.55;;
70981;SDS011;58640;51.320;9.456;2023-04-01T14:51:29;2.60;;;1.63;;
70981;SDS011;58640;51.320;9.456;2023-04-01T14:54:06;0.50;;;0.50;;
70981;SDS011;58640;51.320;9.456;2023-04-01T14:56:47;0.90;;;0.77;;
70981;SDS011;58640;51.320;9.456;2023-04-01T15:04:33;1.15;;;1.00;;
70981;SDS011;58640;51.320;9.456;2023-04-01T15:09:42;1.38;;;0.73;;
70981;SDS011;58640;51.320;9.456;2023-04-01T15:12:27;0.85;;;0.75;;
70981;SDS011;58640;51.320;9.456;2023-04-01T15:18:08;0.70;;;0.50;;
70981;SDS011;58640;51.320;9.456;2023-04-01T15:26:17;0.75;;;0.70;;
70981;SDS011;58640;51.320;9.456;2023-04-01T15:32:03;0.70;;;0.45;;
70981;SDS011;58640;51.320;9.456;2023-04-01T15:34:49;0.80;;;0.80;;
70981;SDS011;58640;51.320;9.456;2023-04-01T15:37:37;1.30;;;1.00;;
70981;SDS011;58640;51.320;9.456;2023-04-01T15:43:12;1.55;;;0.73;;
70981;SDS011;58640;51.320;9.456;2023-04-01T15:45:51;0.77;;;0.77;;
70981;SDS011;58640;51.320;9.456;2023-04-01T15:48:32;2.15;;;2.00;;
70981;SDS011;58640;51.320;9.456;2023-04-01T15:51:12;2.97;;;1.77;;
70981;SDS011;58640;51.320;9.456;2023-04-01T16:02:22;1.50;;;1.40;;
70981;SDS011;58640;51.320;9.456;2023-04-01T16:21:04;0.80;;;0.80;;
70981;SDS011;58640;51.320;9.456;2023-04-01T16:23:41;2.05;;;0.70;;
70981;SDS011;58640;51.320;9.456;2023-04-01T16:26:25;1.08;;;0.98;;
70981;SDS011;58640;51.320;9.456;2023-04-01T16:29:03;1.85;;;1.10;;
70981;SDS011;58640;51.320;9.456;2023-04-01T16:31:42;1.17;;;0.82;;
70981;SDS011;58640;51.320;9.456;2023-04-01T16:37:17;1.25;;;0.80;;
70981;SDS011;58640;51.320;9.456;2023-04-01T16:45:33;1.00;;;0.80;;
70981;SDS011;58640;51.320;9.456;2023-04-01T16:50:44;2.00;;;1.35;;
70981;SDS011;58640;51.320;9.456;2023-04-01T16:54:04;0.90;;;0.85;;
70981;SDS011;58640;51.320;9.456;2023-04-01T16:56:10;1.50;;;1.00;;
70981;SDS011;58640;51.320;9.456;2023-04-01T17:01:17;1.08;;;0.90;;
70981;SDS011;58640;51.320;9.456;2023-04-01T17:03:49;0.93;;;0.80;;
70981;SDS011;58640;51.320;9.456;2023-04-01T17:11:49;1.42;;;1.00;;
70981;SDS011;58640;51.320;9.456;2023-04-01T17:14:30;1.08;;;0.98;;
70981;SDS011;58640;51.320;9.456;2023-04-01T17:17:21;2.33;;;1.13;;
70981;SDS011;58640;51.320;9.456;2023-04-01T17:22:34;1.58;;;1.17;;
70981;SDS011;58640;51.320;9.456;2023-04-01T17:27:52;1.83;;;1.50;;
70981;SDS011;58640;51.320;9.456;2023-04-01T17:33:22;6.78;;;4.72;;
70981;SDS011;58640;51.320;9.456;2023-04-01T17:38:50;1.30;;;1.20;;
70981;SDS011;58640;51.320;9.456;2023-04-01T17:41:36;0.80;;;0.80;;
70981;SDS011;58640;51.320;9.456;2023-04-01T17:44:24;0.50;;;0.50;;
70981;SDS011;58640;51.320;9.456;2023-04-01T17:50:05;0.63;;;0.63;;
70981;SDS011;58640;51.320;9.456;2023-04-01T18:22:55;3.63;;;2.58;;
70981;SDS011;58640;51.320;9.456;2023-04-01T18:25:24;2.88;;;2.30;;
70981;SDS011;58640;51.320;9.456;2023-04-01T18:30:55;5.47;;;2.88;;
70981;SDS011;58640;51.320;9.456;2023-04-01T18:36:33;4.72;;;2.78;;
70981;SDS011;58640;51.320;9.456;2023-04-01T18:39:22;4.80;;;2.67;;
70981;SDS011;58640;51.320;9.456;2023-04-01T18:48:17;7.53;;;4.45;;
70981;SDS011;58640;51.320;9.456;2023-04-01T18:51:12;6.20;;;4.13;;
70981;SDS011;58640;51.320;9.456;2023-04-01T18:53:44;8.27;;;4.22;;
70981;SDS011;58640;51.320;9.456;2023-04-01T18:56:28;5.88;;;4.22;;
70981;SDS011;58640;51.320;9.456;2023-04-01T18:59:04;8.43;;;3.70;;
70981;SDS011;58640;51.320;9.456;2023-04-01T19:01:36;6.60;;;4.10;;
70981;SDS011;58640;51.320;9.456;2023-04-01T19:04:05;8.90;;;6.18;;
70981;SDS011;58640;51.320;9.456;2023-04-01T19:06:42;6.30;;;5.03;;
70981;SDS011;58640;51.320;9.456;2023-04-01T19:09:20;6.30;;;4.60;;
70981;SDS011;58640;51.320;9.456;2023-04-01T19:19:56;7.82;;;5.85;;
70981;SDS011;58640;51.320;9.456;2023-04-01T19:28:22;1.98;;;1.80;;
70981;SDS011;58640;51.320;9.456;2023-04-01T19:34:18;1.90;;;1.70;;
70981;SDS011;58640;51.320;9.456;2023-04-01T19:36:48;4.07;;;2.42;;
70981;SDS011;58640;51.320;9.456;2023-04-01T19:39:38;2.28;;;1.85;;
70981;SDS011;58640;51.320;9.456;2023-04-01T19:42:32;3.60;;;1.77;;
70981;SDS011;58640;51.320;9.456;2023-04-01T19:50:57;4.93;;;2.67;;
70981;SDS011;58640;51.320;9.456;2023-04-01T19:53:31;2.83;;;2.40;;
70981;SDS011;58640;51.320;9.456;2023-04-01T19:56:20;3.42;;;2.75;;
70981;SDS011;58640;51.320;9.456;2023-04-01T20:01:32;3.45;;;3.00;;
70981;SDS011;58640;51.320;9.456;2023-04-01T20:04:08;4.35;;;2.40;;
70981;SDS011;58640;51.320;9.456;2023-04-01T20:06:56;4.53;;;2.53;;
70981;SDS011;58640;51.320;9.456;2023-04-01T20:17:50;3.88;;;2.80;;
70981;SDS011;58640;51.320;9.456;2023-04-01T20:20:19;5.40;;;2.65;;
70981;SDS011;58640;51.320;9.456;2023-04-01T20:25:31;4.60;;;2.65;;
70981;SDS011;58640;51.320;9.456;2023-04-01T20:36:06;2.35;;;2.15;;
70981;SDS011;58640;51.320;9.456;2023-04-01T20:44:03;3.10;;;2.42;;
70981;SDS011;58640;51.320;9.456;2023-04-01T20:57:25;1.80;;;1.70;;
70981;SDS011;58640;51.320;9.456;2023-04-01T21:00:31;1.90;;;1.70;;
70981;SDS011;58640;51.320;9.456;2023-04-01T21:08:44;3.42;;;2.55;;
70981;SDS011;58640;51.320;9.456;2023-04-01T21:31:21;2.20;;;2.03;;
70981;SDS011;58640;51.320;9.456;2023-04-01T21:33:59;2.55;;;2.13;;
70981;SDS011;58640;51.320;9.456;2023-04-01T21:36:52;2.42;;;2.10;;
70981;SDS011;58640;51.320;9.456;2023-04-01T21:45:22;2.97;;;2.20;;
70981;SDS011;58640;51.320;9.456;2023-04-01T21:48:10;1.55;;;1.45;;
70981;SDS011;58640;51.320;9.456;2023-04-01T21:50:55;2.10;;;0.90;;
70981;SDS011;58640;51.320;9.456;2023-04-01T22:06:56;0.90;;;0.80;;
70981;SDS011;58640;51.320;9.456;2023-04-01T22:12:27;0.75;;;0.75;;
70981;SDS011;58640;51.320;9.456;2023-04-01T22:18:13;1.85;;;0.80;;
70981;SDS011;58640;51.320;9.456;2023-04-01T22:20:50;1.23;;;0.90;;
70981;SDS011;58640;51.320;9.456;2023-04-01T22:23:31;1.00;;;0.93;;
70981;SDS011;58640;51.320;9.456;2023-04-01T22:31:13;2.03;;;1.15;;
70981;SDS011;58640;51.320;9.456;2023-04-01T22:33:50;2.22;;;1.20;;
70981;SDS011;58640;51.320;9.456;2023-04-01T22:36:33;1.38;;;1.27;;
70981;SDS011;58640;51.320;9.456;2023-04-01T22:39:24;1.25;;;1.15;;
70981;SDS011;58640;51.320;9.456;2023-04-01T22:55:52;3.30;;;1.30;;
70981;SDS011;58640;51.320;9.456;2023-04-01T22:58:25;2.95;;;1.33;;
70981;SDS011;58640;51.320;9.456;2023-04-01T23:01:01;2.15;;;1.00;;
70981;SDS011;58640;51.320;9.456;2023-04-01T23:03:34;1.10;;;1.10;;
70981;SDS011;58640;51.320;9.456;2023-04-01T23:06:05;2.25;;;1.13;;
70981;SDS011;58640;51.320;9.456;2023-04-01T23:16:57;0.80;;;0.80;;
70981;SDS011;58640;51.320;9.456;2023-04-01T23:27:56;1.50;;;0.70;;
70981;SDS011;58640;51.320;9.456;2023-04-01T23:36:16;0.65;;;0.65;;
70981;SDS011;58640;51.320;9.456;2023-04-01T23:38:38;1.10;;;0.60;;
70981;SDS011;58640;51.320;9.456;2023-04-01T23:41:08;0.47;;;0.47;;
70981;SDS011;58640;51.320;9.456;2023-04-01T23:43:42;0.47;;;0.47;;
70981;SDS011;58640;51.320;9.456;2023-04-01T23:46:10;0.52;;;0.52;;
70981;SDS011;58640;51.320;9.456;2023-04-01T23:48:39;0.50;;;0.50;;
70981;SDS011;58640;51.320;9.456;2023-04-01T23:51:26;0.47;;;0.43;;
70981;SDS011;58640;51.320;9.456;2023-04-01T23:53:59;0.40;;;0.40;;
70981;SDS011;58640;51.320;9.456;2023-04-01T23:56:35;0.47;;;0.47;;
70981;SDS011;58640;51.320;9.456;2023-04-01T23:59:03;0.40;;;0.40;;
